Terminal Aerodrome Forecast
Issued by NWS Buffalo, NY

Home | Current Version | Previous Version | Text Only | Print | Product List | Glossary On
Versions: 1 2 3 4 5 6 7 8 9 10 11 12 13 14 15 16 17 18 19 20 21 22 23 24 25 26 27 28
476
FTUS41 KBUF 212046 AAA
TAFBUF
TAF AMD
KBUF 212046Z 2121/2218 20012KT P6SM VCSH OVC100
     FM212130 21010KT 6SM -SHRA SCT035 OVC060
     FM220000 22006KT P6SM VCSH OVC035
     FM220400 21006KT P6SM OVC025
     FM221000 19006KT P6SM BKN007
     FM221300 19006KT P6SM BKN025=

USA.gov is the U.S. government's official web portal to all federal, state and local government web resources and services.